createdAt,value
2019-05-02T00:00:00.665Z,11.43
2019-05-02T00:02:32.874Z,9.65
2019-05-02T00:05:05.749Z,13.53
2019-05-02T00:07:37.369Z,9.15
2019-05-02T00:10:11.051Z,11.30
2019-05-02T00:12:43.771Z,10.68
2019-05-02T00:15:18.566Z,10.72
2019-05-02T00:17:49.922Z,11.48
2019-05-02T00:20:25.638Z,8.05
2019-05-02T00:22:54.406Z,8.23
2019-05-02T00:25:26.051Z,10.40
2019-05-02T00:27:57.572Z,9.68
2019-05-02T00:30:30.009Z,10.38
2019-05-02T00:33:01.907Z,8.53
2019-05-02T00:35:34.426Z,9.60
2019-05-02T00:38:05.820Z,10.35
2019-05-02T00:40:36.955Z,10.70
2019-05-02T00:43:09.023Z,8.28
2019-05-02T00:45:40.658Z,10.68
2019-05-02T00:48:13.900Z,9.48
2019-05-02T00:50:50.921Z,9.35
2019-05-02T00:53:18.765Z,8.28
2019-05-02T00:55:50.651Z,8.93
2019-05-02T00:58:21.955Z,9.15
2019-05-02T01:00:55.103Z,9.33
2019-05-02T01:03:27.707Z,9.90
2019-05-02T01:05:59.877Z,7.95
2019-05-02T01:08:35.374Z,9.50
2019-05-02T01:11:06.019Z,7.87
2019-05-02T01:13:37.262Z,9.65
2019-05-02T01:16:08.550Z,10.05
2019-05-02T01:18:41.357Z,10.40
2019-05-02T01:21:13.320Z,13.20
2019-05-02T01:23:44.351Z,9.85
2019-05-02T01:26:15.910Z,8.50
2019-05-02T01:28:53.756Z,8.65
2019-05-02T01:31:23.342Z,11.93
2019-05-02T01:33:55.942Z,12.85
2019-05-02T01:36:28.844Z,9.25
2019-05-02T01:39:02.945Z,9.00
2019-05-02T01:41:35.543Z,7.60
2019-05-02T01:44:06.729Z,9.63
2019-05-02T01:46:37.899Z,9.33
2019-05-02T01:49:08.787Z,9.80
2019-05-02T01:51:42.024Z,8.88
2019-05-02T01:54:14.311Z,8.30
2019-05-02T01:56:45.968Z,9.43
2019-05-02T01:59:18.279Z,7.87
2019-05-02T02:01:53.092Z,7.53
2019-05-02T02:04:22.898Z,8.20
2019-05-02T02:06:54.243Z,12.60
2019-05-02T02:09:25.521Z,9.33
2019-05-02T02:11:56.321Z,13.20
2019-05-02T02:14:27.667Z,10.38
2019-05-02T02:16:59.443Z,10.13
2019-05-02T02:19:34.616Z,10.80
2019-05-02T02:22:07.262Z,9.65
2019-05-02T02:24:39.885Z,9.28
2019-05-02T02:27:10.846Z,8.58
2019-05-02T02:29:44.078Z,11.48
2019-05-02T02:32:20.120Z,10.38
2019-05-02T02:34:48.059Z,13.25
2019-05-02T02:37:19.333Z,13.18
2019-05-02T02:39:54.001Z,12.75
2019-05-02T02:42:24.972Z,11.30
2019-05-02T02:44:58.641Z,11.68
2019-05-02T02:47:29.954Z,13.43
2019-05-02T02:50:02.537Z,11.57
2019-05-02T02:52:37.766Z,11.83
2019-05-02T02:55:07.879Z,11.03
2019-05-02T02:57:39.421Z,11.22
2019-05-02T03:00:11.450Z,8.85
2019-05-02T03:02:48.409Z,10.98
2019-05-02T03:05:18.997Z,11.20
2019-05-02T03:07:49.156Z,14.28
2019-05-02T03:10:20.868Z,11.10
2019-05-02T03:12:53.790Z,11.75
2019-05-02T03:15:29.770Z,11.68
2019-05-02T03:18:02.220Z,13.55
2019-05-02T03:20:39.842Z,10.03
2019-05-02T03:23:07.017Z,9.58
2019-05-02T03:25:49.830Z,13.05
2019-05-02T03:28:17.380Z,13.10
2019-05-02T03:30:44.920Z,11.05
2019-05-02T03:33:16.065Z,12.88
2019-05-02T03:35:49.085Z,16.00
2019-05-02T03:38:31.417Z,10.78
2019-05-02T03:40:55.778Z,14.85
2019-05-02T03:43:27.728Z,12.70
2019-05-02T03:45:59.055Z,14.03
2019-05-02T03:48:30.716Z,13.45
2019-05-02T03:51:05.131Z,10.72
2019-05-02T03:53:35.153Z,14.85
2019-05-02T03:56:11.495Z,12.82
2019-05-02T03:58:38.841Z,11.28
2019-05-02T04:01:09.981Z,13.22
2019-05-02T04:03:43.754Z,11.60
2019-05-02T04:06:21.259Z,12.00
2019-05-02T04:08:58.727Z,11.83
2019-05-02T04:11:25.536Z,10.10
2019-05-02T04:13:57.991Z,12.43
2019-05-02T04:16:30.925Z,11.70
2019-05-02T04:19:03.043Z,12.50
2019-05-02T04:21:34.778Z,13.78
2019-05-02T04:24:15.119Z,14.07
2019-05-02T04:26:52.086Z,12.30
2019-05-02T04:29:13.195Z,10.93
2019-05-02T04:31:44.650Z,17.48
2019-05-02T04:34:17.871Z,13.75
2019-05-02T04:37:00.026Z,11.05
2019-05-02T04:39:22.791Z,10.50
2019-05-02T04:41:53.817Z,13.32
2019-05-02T04:44:32.398Z,12.10
2019-05-02T04:46:59.806Z,13.22
2019-05-02T04:49:35.551Z,10.88
2019-05-02T04:52:07.880Z,12.82
2019-05-02T04:54:38.879Z,11.95
2019-05-02T04:57:11.321Z,11.05
2019-05-02T04:59:42.618Z,12.75
2019-05-02T05:02:13.942Z,11.33
2019-05-02T05:04:48.690Z,13.83
2019-05-02T05:07:17.970Z,11.65
2019-05-02T05:09:57.168Z,16.37
2019-05-02T05:12:22.315Z,10.90
2019-05-02T05:14:54.391Z,11.28
2019-05-02T05:17:32.472Z,11.73
2019-05-02T05:20:00.320Z,10.83
2019-05-02T05:22:36.479Z,15.60
2019-05-02T05:25:07.554Z,13.23
2019-05-02T05:27:39.247Z,13.57
2019-05-02T05:30:15.398Z,12.55
2019-05-02T05:32:43.844Z,13.35
2019-05-02T05:35:14.935Z,13.78
2019-05-02T05:37:51.361Z,12.23
2019-05-02T05:40:22.595Z,15.55
2019-05-02T05:42:52.497Z,13.65
2019-05-02T05:45:23.822Z,12.40
2019-05-02T05:47:57.538Z,12.47
2019-05-02T05:50:32.311Z,13.80
2019-05-02T05:53:01.802Z,11.95
2019-05-02T05:55:34.649Z,11.55
2019-05-02T05:58:13.073Z,12.85
2019-05-02T06:00:39.458Z,14.60
2019-05-02T06:03:14.144Z,14.95
2019-05-02T06:05:45.196Z,12.33
2019-05-02T06:08:18.532Z,12.73
2019-05-02T06:10:50.179Z,17.67
2019-05-02T06:13:21.795Z,13.03
2019-05-02T06:16:02.238Z,16.67
2019-05-02T06:18:28.452Z,10.88
2019-05-02T06:21:03.415Z,11.08
2019-05-02T06:23:36.569Z,15.10
2019-05-02T06:26:13.054Z,13.00
2019-05-02T06:28:41.781Z,15.80
2019-05-02T06:31:16.698Z,13.45
2019-05-02T06:33:47.118Z,11.03
2019-05-02T06:36:18.787Z,18.20
2019-05-02T06:38:52.321Z,10.95
2019-05-02T06:41:23.545Z,12.58
2019-05-02T06:43:55.588Z,11.97
2019-05-02T06:46:29.603Z,12.68
2019-05-02T06:49:00.999Z,13.60
2019-05-02T06:51:32.523Z,11.10
2019-05-02T06:54:04.210Z,13.93
2019-05-02T06:56:35.821Z,14.05
2019-05-02T06:59:07.818Z,13.00
2019-05-02T07:01:39.043Z,12.68
2019-05-02T07:04:11.975Z,11.65
2019-05-02T07:06:57.792Z,12.88
2019-05-02T07:09:16.752Z,15.08
2019-05-02T07:11:57.053Z,17.35
2019-05-02T07:14:23.519Z,13.72
2019-05-02T07:16:57.657Z,10.28
2019-05-02T07:19:32.092Z,10.60
2019-05-02T07:22:04.330Z,13.00
2019-05-02T07:24:36.010Z,14.05
2019-05-02T07:27:08.520Z,100.92
2019-05-02T07:29:39.796Z,19.10
2019-05-02T07:32:11.618Z,13.53
2019-05-02T07:34:44.135Z,12.90
2019-05-02T07:37:15.905Z,15.65
2019-05-02T07:39:47.619Z,15.58
2019-05-02T07:42:18.924Z,14.25
2019-05-02T07:44:50.087Z,13.00
2019-05-02T07:47:22.488Z,9.70
2019-05-02T07:49:55.726Z,11.03
2019-05-02T07:52:28.920Z,12.70
2019-05-02T07:55:01.075Z,14.43
2019-05-02T07:57:33.521Z,9.38
2019-05-02T08:00:07.896Z,10.30
2019-05-02T08:02:39.589Z,17.65
2019-05-02T08:05:15.841Z,12.45
2019-05-02T08:07:44.454Z,9.35
2019-05-02T08:10:22.220Z,11.03
2019-05-02T08:12:51.023Z,13.45
2019-05-02T08:15:24.500Z,11.40
2019-05-02T08:17:55.513Z,10.45
2019-05-02T08:20:27.285Z,14.55
2019-05-02T08:22:58.939Z,10.85
2019-05-02T08:25:30.093Z,10.80
2019-05-02T08:28:04.835Z,9.75
2019-05-02T08:30:40.552Z,13.13
2019-05-02T08:33:11.697Z,10.68
2019-05-02T08:35:43.277Z,11.70
2019-05-02T08:38:17.947Z,11.53
2019-05-02T08:40:49.787Z,13.28
2019-05-02T08:43:21.704Z,15.13
2019-05-02T08:45:53.594Z,10.50
2019-05-02T08:48:24.857Z,10.40
2019-05-02T08:50:59.069Z,10.15
2019-05-02T08:53:30.908Z,11.20
2019-05-02T08:56:02.098Z,9.13
2019-05-02T08:58:33.187Z,8.93
2019-05-02T09:01:04.537Z,8.78
2019-05-02T09:03:54.777Z,11.68
2019-05-02T09:06:10.698Z,9.85
2019-05-02T09:08:46.121Z,8.75
2019-05-02T09:11:15.860Z,12.60
2019-05-02T09:13:47.096Z,8.03
2019-05-02T09:16:23.629Z,9.03
2019-05-02T09:18:53.960Z,9.58
2019-05-02T09:21:26.687Z,7.62
2019-05-02T09:23:55.756Z,7.60
2019-05-02T09:26:37.771Z,9.48
2019-05-02T09:29:01.689Z,6.47
2019-05-02T09:31:36.775Z,6.17
2019-05-02T09:34:05.396Z,7.70
2019-05-02T09:36:38.177Z,9.08
2019-05-02T09:39:08.986Z,7.37
2019-05-02T09:41:41.807Z,10.43
2019-05-02T09:44:14.539Z,10.38
2019-05-02T09:46:47.395Z,7.72
2019-05-02T09:49:17.726Z,7.58
2019-05-02T09:51:50.421Z,6.60
2019-05-02T09:54:23.213Z,7.87
2019-05-02T09:56:54.385Z,8.28
2019-05-02T09:59:30.311Z,9.05
2019-05-02T10:02:01.891Z,8.00
2019-05-02T10:04:33.031Z,8.93
2019-05-02T10:07:04.934Z,9.55
2019-05-02T10:09:35.917Z,6.65
2019-05-02T10:12:06.691Z,10.68
2019-05-02T10:14:37.807Z,8.25
2019-05-02T10:17:09.312Z,10.75
2019-05-02T10:19:42.991Z,16.52
2019-05-02T10:22:12.744Z,9.10
2019-05-02T10:24:43.898Z,7.65
2019-05-02T10:27:21.641Z,7.95
2019-05-02T10:29:53.621Z,9.60
2019-05-02T10:32:32.032Z,7.35
2019-05-02T10:35:12.896Z,10.95
2019-05-02T10:37:58.883Z,10.45
2019-05-02T10:40:38.865Z,8.65
2019-05-02T10:43:13.783Z,8.68
2019-05-02T10:45:54.104Z,6.75
2019-05-02T10:48:28.041Z,7.12
2019-05-02T10:50:57.055Z,12.73
2019-05-02T10:53:28.901Z,10.85
2019-05-02T10:56:03.964Z,9.05
2019-05-02T10:58:42.716Z,7.47
2019-05-02T11:01:24.001Z,11.70
2019-05-02T11:04:05.100Z,11.60
2019-05-02T11:06:46.309Z,9.23
2019-05-02T11:09:26.243Z,7.28
2019-05-02T11:12:02.558Z,11.18
2019-05-02T11:14:39.296Z,10.90
2019-05-02T11:17:19.278Z,11.22
2019-05-02T11:20:01.913Z,10.18
2019-05-02T11:22:36.277Z,9.23
2019-05-02T11:25:08.457Z,11.50
2019-05-02T11:27:39.466Z,7.47
2019-05-02T11:30:12.212Z,10.35
2019-05-02T11:32:43.479Z,11.95
2019-05-02T11:35:14.975Z,15.60
2019-05-02T11:37:47.636Z,14.83
2019-05-02T11:40:22.673Z,10.72
2019-05-02T11:42:57.177Z,10.47
2019-05-02T11:45:26.716Z,9.55
2019-05-02T11:48:01.779Z,9.48
2019-05-02T11:50:35.304Z,10.90
2019-05-02T11:53:09.211Z,9.45
2019-05-02T11:55:41.386Z,9.00
2019-05-02T11:58:12.600Z,8.73
2019-05-02T12:00:49.328Z,12.10
2019-05-02T12:03:19.569Z,8.90
2019-05-02T12:05:52.405Z,10.57
2019-05-02T12:08:25.039Z,8.25
2019-05-02T12:11:03.898Z,10.85
2019-05-02T12:13:42.663Z,10.35
2019-05-02T12:16:18.853Z,9.45
2019-05-02T12:18:50.926Z,7.70
2019-05-02T12:21:23.669Z,12.82
2019-05-02T12:23:56.468Z,10.90
2019-05-02T12:26:28.249Z,8.48
2019-05-02T12:29:00.107Z,11.75
2019-05-02T12:31:47.279Z,9.90
2019-05-02T12:34:18.478Z,9.10
2019-05-02T12:36:52.310Z,13.18
2019-05-02T12:39:24.173Z,7.87
2019-05-02T12:41:56.387Z,10.40
2019-05-02T12:44:28.594Z,9.30
2019-05-02T12:47:00.122Z,10.88
2019-05-02T12:49:32.514Z,8.73
2019-05-02T12:52:05.949Z,8.80
2019-05-02T12:54:39.028Z,10.70
2019-05-02T12:57:12.365Z,9.45
2019-05-02T12:59:44.778Z,9.65
2019-05-02T13:02:18.325Z,21.75
2019-05-02T13:04:50.340Z,12.95
2019-05-02T13:07:23.348Z,8.65
2019-05-02T13:09:55.351Z,13.43
2019-05-02T13:12:30.083Z,9.45
2019-05-02T13:15:02.259Z,7.78
2019-05-02T13:17:37.194Z,8.90
2019-05-02T13:20:09.664Z,8.55
2019-05-02T13:22:42.898Z,10.58
2019-05-02T13:25:16.258Z,9.28
2019-05-02T13:27:48.995Z,11.45
2019-05-02T13:30:22.133Z,13.45
2019-05-02T13:32:58.018Z,10.28
2019-05-02T13:35:32.333Z,8.68
2019-05-02T13:38:04.448Z,14.33
2019-05-02T13:40:39.242Z,11.38
2019-05-02T13:43:12.360Z,13.85
2019-05-02T13:45:45.282Z,10.53
2019-05-02T13:48:17.237Z,11.10
2019-05-02T13:50:48.765Z,9.85
2019-05-02T13:53:22.706Z,12.68
2019-05-02T13:55:57.781Z,9.28
2019-05-02T13:58:32.648Z,11.22
2019-05-02T14:01:04.408Z,10.70
2019-05-02T14:03:36.588Z,7.75
2019-05-02T14:06:08.542Z,11.15
2019-05-02T14:08:43.004Z,10.03
2019-05-02T14:11:18.261Z,9.70
2019-05-02T14:13:49.702Z,9.40
2019-05-02T14:16:28.907Z,10.55
2019-05-02T14:19:02.859Z,14.18
2019-05-02T14:21:43.046Z,9.60
2019-05-02T14:24:32.363Z,9.30
2019-05-02T14:27:35.732Z,8.05
2019-05-02T14:30:16.803Z,10.45
2019-05-02T14:32:49.859Z,11.80
2019-05-02T14:35:27.828Z,9.88
2019-05-02T14:37:57.617Z,11.57
2019-05-02T14:40:31.937Z,10.85
2019-05-02T14:43:06.050Z,13.68
2019-05-02T14:45:37.172Z,11.28
2019-05-02T14:48:21.085Z,9.53
2019-05-02T14:50:45.635Z,7.42
2019-05-02T14:53:22.126Z,10.23
2019-05-02T14:55:53.155Z,19.95
2019-05-02T14:58:27.570Z,11.68
2019-05-02T15:00:59.701Z,12.65
2019-05-02T15:03:32.500Z,10.80
2019-05-02T15:06:07.078Z,10.55
2019-05-02T15:08:41.994Z,8.23
2019-05-02T15:11:15.503Z,15.50
2019-05-02T15:13:46.901Z,21.42
2019-05-02T15:16:23.024Z,12.18
2019-05-02T15:18:57.086Z,15.30
2019-05-02T15:21:29.675Z,10.50
2019-05-02T15:24:02.064Z,11.70
2019-05-02T15:26:37.461Z,10.82
2019-05-02T15:29:12.341Z,12.33
2019-05-02T15:31:45.101Z,14.03
2019-05-02T15:34:19.315Z,10.75
2019-05-02T15:36:52.701Z,10.05
2019-05-02T15:42:01.756Z,9.23
2019-05-02T15:44:33.435Z,10.98
2019-05-02T15:47:07.081Z,11.80
2019-05-02T15:49:44.872Z,9.85
2019-05-02T15:52:18.873Z,11.93
2019-05-02T15:55:00.006Z,12.30
2019-05-02T15:57:25.368Z,12.37
2019-05-02T15:59:58.441Z,11.55
2019-05-02T16:02:32.120Z,10.58
2019-05-02T16:05:07.141Z,9.30
2019-05-02T16:07:43.268Z,8.13
2019-05-02T16:10:15.427Z,12.45
2019-05-02T16:12:48.677Z,14.87
2019-05-02T16:15:24.812Z,9.98
2019-05-02T16:17:56.886Z,13.48
2019-05-02T16:20:29.591Z,9.88
2019-05-02T16:23:01.878Z,10.50
2019-05-02T16:25:34.102Z,10.05
2019-05-02T16:28:06.142Z,7.55
2019-05-02T16:30:44.119Z,10.75
2019-05-02T16:33:18.897Z,9.15
2019-05-02T16:35:46.338Z,9.43
2019-05-02T16:38:19.252Z,10.13
2019-05-02T16:40:52.770Z,7.22
2019-05-02T16:43:27.078Z,10.70
2019-05-02T16:46:01.731Z,12.78
2019-05-02T16:48:37.852Z,11.97
2019-05-02T16:51:27.560Z,7.87
2019-05-02T16:53:42.904Z,11.85
2019-05-02T16:56:16.005Z,16.55
2019-05-02T16:58:49.015Z,11.88
2019-05-02T17:01:27.183Z,9.90
2019-05-02T17:04:02.430Z,8.10
2019-05-02T17:06:32.525Z,10.75
2019-05-02T17:09:07.256Z,9.40
2019-05-02T17:11:42.016Z,9.70
2019-05-02T17:14:14.405Z,11.63
2019-05-02T17:16:52.434Z,10.20
2019-05-02T17:19:21.627Z,9.38
2019-05-02T17:21:56.604Z,9.80
2019-05-02T17:24:29.524Z,12.33
2019-05-02T17:27:02.549Z,8.63
2019-05-02T17:29:35.627Z,10.50
2019-05-02T17:32:09.084Z,8.00
2019-05-02T17:34:42.219Z,10.38
2019-05-02T17:37:14.222Z,13.70
2019-05-02T17:39:46.949Z,10.40
2019-05-02T17:42:22.325Z,10.08
2019-05-02T17:44:57.941Z,8.48
2019-05-02T17:47:25.790Z,9.78
2019-05-02T17:49:59.663Z,13.90
2019-05-02T17:52:34.134Z,10.13
2019-05-02T17:55:08.225Z,10.65
2019-05-02T17:57:42.000Z,12.05
2019-05-02T18:00:16.867Z,12.03
2019-05-02T18:02:51.789Z,10.65
2019-05-02T18:05:26.543Z,58.90
2019-05-02T18:07:58.011Z,10.40
2019-05-02T18:10:29.560Z,10.93
2019-05-02T18:13:02.680Z,10.53
2019-05-02T18:15:36.318Z,12.47
2019-05-02T18:18:08.166Z,12.28
2019-05-02T18:20:42.709Z,16.20
2019-05-02T18:23:18.753Z,17.73
2019-05-02T18:25:52.436Z,10.88
2019-05-02T18:28:26.436Z,10.15
2019-05-02T18:31:04.128Z,18.02
2019-05-02T18:33:36.087Z,20.40
2019-05-02T18:36:08.241Z,18.37
2019-05-02T18:38:41.609Z,17.62
2019-05-02T18:41:13.412Z,23.15
2019-05-02T18:43:46.299Z,9.75
2019-05-02T18:46:19.977Z,30.45
2019-05-02T18:48:51.939Z,32.15
2019-05-02T18:51:24.657Z,40.55
2019-05-02T18:54:04.267Z,34.92
2019-05-02T18:56:34.040Z,46.25
2019-05-02T18:59:05.241Z,35.17
2019-05-02T19:01:36.903Z,13.60
2019-05-02T19:04:10.045Z,23.60
2019-05-02T19:06:43.311Z,75.45
2019-05-02T19:09:17.529Z,23.10
2019-05-02T19:11:47.622Z,14.40
2019-05-02T19:14:22.209Z,13.62
2019-05-02T19:16:58.001Z,25.90
2019-05-02T19:19:32.990Z,24.60
2019-05-02T19:22:02.661Z,32.38
2019-05-02T19:24:36.619Z,24.12
2019-05-02T19:27:08.755Z,15.53
2019-05-02T19:29:40.156Z,15.63
2019-05-02T19:32:12.321Z,19.73
2019-05-02T19:34:43.601Z,30.90
2019-05-02T19:37:16.500Z,28.38
2019-05-02T19:39:52.373Z,17.98
2019-05-02T19:42:26.196Z,62.05
2019-05-02T19:45:03.783Z,36.48
2019-05-02T19:47:31.702Z,50.28
2019-05-02T19:50:06.824Z,18.23
2019-05-02T19:52:41.018Z,39.75
2019-05-02T19:55:19.807Z,44.95
2019-05-02T19:57:46.040Z,19.85
2019-05-02T20:00:20.055Z,39.48
2019-05-02T20:02:52.298Z,20.20
2019-05-02T20:05:25.526Z,25.05
2019-05-02T20:07:56.334Z,52.50
2019-05-02T20:10:29.455Z,32.53
2019-05-02T20:13:02.885Z,22.77
2019-05-02T20:15:35.608Z,30.95
2019-05-02T20:18:08.152Z,15.40
2019-05-02T20:20:44.247Z,17.05
2019-05-02T20:23:18.760Z,42.78
2019-05-02T20:25:52.137Z,18.17
2019-05-02T20:28:22.759Z,16.00
2019-05-02T20:30:54.410Z,14.83
2019-05-02T20:33:25.756Z,10.32
2019-05-02T20:35:57.570Z,17.20
2019-05-02T20:38:28.571Z,19.87
2019-05-02T20:41:02.778Z,16.25
2019-05-02T20:43:34.970Z,13.35
2019-05-02T20:46:06.739Z,21.15
2019-05-02T20:48:38.351Z,21.07
2019-05-02T20:51:11.980Z,19.27
2019-05-02T20:53:42.895Z,20.50
2019-05-02T20:56:15.139Z,23.50
2019-05-02T20:58:47.742Z,11.20
2019-05-02T21:01:20.275Z,23.70
2019-05-02T21:03:52.369Z,12.55
2019-05-02T21:06:37.421Z,22.25
2019-05-02T21:09:02.227Z,20.62
2019-05-02T21:11:36.049Z,20.12
2019-05-02T21:14:07.686Z,23.97
2019-05-02T21:16:45.970Z,14.87
2019-05-02T21:19:21.746Z,28.35
2019-05-02T21:21:55.214Z,14.35
2019-05-02T21:24:28.055Z,72.82
2019-05-02T21:27:01.945Z,194.13
2019-05-02T21:29:34.176Z,400.90
2019-05-02T21:32:06.134Z,130.72
2019-05-02T21:34:38.597Z,247.90
2019-05-02T21:37:10.334Z,87.12
2019-05-02T21:39:42.559Z,26.75
2019-05-02T21:42:14.358Z,13.20
2019-05-02T21:44:45.637Z,17.62
2019-05-02T21:47:17.763Z,14.85
2019-05-02T21:49:52.466Z,15.38
2019-05-02T21:52:25.471Z,17.23
2019-05-02T21:54:56.994Z,15.63
2019-05-02T21:57:28.701Z,17.02
2019-05-02T22:00:02.326Z,20.88
2019-05-02T22:02:34.931Z,34.53
2019-05-02T22:05:07.548Z,21.77
2019-05-02T22:07:41.593Z,31.27
2019-05-02T22:10:12.253Z,16.20
2019-05-02T22:12:44.132Z,25.37
2019-05-02T22:15:16.091Z,28.60
2019-05-02T22:17:47.253Z,24.40
2019-05-02T22:20:18.996Z,23.90
2019-05-02T22:22:52.020Z,16.07
2019-05-02T22:25:23.132Z,18.15
2019-05-02T22:27:54.173Z,20.70
2019-05-02T22:30:25.287Z,23.25
2019-05-02T22:32:56.931Z,21.00
2019-05-02T22:35:28.700Z,17.48
2019-05-02T22:38:02.252Z,22.02
2019-05-02T22:40:33.764Z,22.05
2019-05-02T22:43:06.337Z,26.17
2019-05-02T22:45:38.301Z,27.95
2019-05-02T22:48:11.899Z,19.42
2019-05-02T22:50:43.275Z,17.23
2019-05-02T22:53:14.879Z,16.62
2019-05-02T22:55:46.272Z,20.43
2019-05-02T22:58:17.952Z,34.75
2019-05-02T23:00:49.310Z,23.30
2019-05-02T23:03:21.575Z,23.12
2019-05-02T23:05:54.133Z,20.92
2019-05-02T23:08:25.280Z,16.75
2019-05-02T23:10:56.443Z,26.00
2019-05-02T23:13:28.031Z,20.52
2019-05-02T23:15:59.251Z,15.63
2019-05-02T23:18:31.940Z,17.95
2019-05-02T23:21:03.819Z,20.48
2019-05-02T23:23:34.979Z,22.30
2019-05-02T23:26:08.042Z,17.60
2019-05-02T23:28:42.288Z,19.32
2019-05-02T23:31:14.200Z,22.65
2019-05-02T23:33:47.329Z,19.17
2019-05-02T23:36:18.892Z,18.40
2019-05-02T23:38:52.220Z,19.77
2019-05-02T23:41:25.244Z,19.12
2019-05-02T23:43:57.167Z,24.63
2019-05-02T23:46:28.270Z,18.85
2019-05-02T23:48:59.378Z,20.75
2019-05-02T23:51:32.251Z,18.60
2019-05-02T23:54:04.020Z,19.02
2019-05-02T23:56:35.217Z,17.45
2019-05-02T23:59:06.398Z,18.48
